createdAt,value
2018-09-11T00:01:05.242Z,64.60
2018-09-11T00:03:34.210Z,64.70
2018-09-11T00:06:03.279Z,64.70
2018-09-11T00:08:31.598Z,64.80
2018-09-11T00:11:00.262Z,64.60
2018-09-11T00:13:28.501Z,64.70
2018-09-11T00:15:56.789Z,64.60
2018-09-11T00:18:25.298Z,64.70
2018-09-11T00:20:53.512Z,64.60
2018-09-11T00:23:21.737Z,64.60
2018-09-11T00:25:50.230Z,64.70
2018-09-11T00:28:18.529Z,64.60
2018-09-11T00:30:47.127Z,64.60
2018-09-11T00:33:15.498Z,64.60
2018-09-11T00:35:43.697Z,64.60
2018-09-11T00:38:12.015Z,64.50
2018-09-11T00:40:40.610Z,64.60
2018-09-11T00:43:08.924Z,64.50
2018-09-11T00:45:37.237Z,64.50
2018-09-11T00:48:06.050Z,64.60
2018-09-11T00:50:34.265Z,64.50
2018-09-11T00:53:02.562Z,64.50
2018-09-11T00:55:30.878Z,64.60
2018-09-11T00:57:59.134Z,64.50
2018-09-11T01:00:27.352Z,64.60
2018-09-11T01:02:55.858Z,64.60
2018-09-11T01:05:24.163Z,64.60
2018-09-11T01:07:52.891Z,64.60
2018-09-11T01:10:21.770Z,64.50
2018-09-11T01:12:49.990Z,64.60
2018-09-11T01:15:18.295Z,64.50
2018-09-11T01:17:46.908Z,64.50
2018-09-11T01:20:15.127Z,64.50
2018-09-11T01:22:43.502Z,64.50
2018-09-11T01:25:12.145Z,64.40
2018-09-11T01:27:40.374Z,64.50
2018-09-11T01:30:08.606Z,64.50
2018-09-11T01:32:38.211Z,64.50
2018-09-11T01:35:06.426Z,64.50
2018-09-11T01:37:34.807Z,64.40
2018-09-11T01:40:03.462Z,64.40
2018-09-11T01:42:31.695Z,64.50
2018-09-11T01:44:59.910Z,64.50
2018-09-11T01:47:28.587Z,64.40
2018-09-11T01:49:56.902Z,64.40
2018-09-11T01:52:25.112Z,64.40
2018-09-11T01:54:54.851Z,64.40
2018-09-11T01:57:23.163Z,64.40
2018-09-11T01:59:51.454Z,64.30
2018-09-11T02:02:19.720Z,64.30
2018-09-11T02:04:49.499Z,63.90
2018-09-11T02:07:17.728Z,64.30
2018-09-11T02:09:46.658Z,64.30
2018-09-11T02:12:14.866Z,64.40
2018-09-11T02:14:43.570Z,64.40
2018-09-11T02:17:12.012Z,65.00
2018-09-11T02:19:40.222Z,64.40
2018-09-11T02:22:08.482Z,64.30
2018-09-11T02:24:37.349Z,64.30
2018-09-11T02:27:05.601Z,64.30
2018-09-11T02:29:34.014Z,64.30
2018-09-11T02:32:02.341Z,64.30
2018-09-11T02:34:30.588Z,64.20
2018-09-11T02:36:58.966Z,64.20
2018-09-11T02:39:27.246Z,64.20
2018-09-11T02:41:55.595Z,64.60
2018-09-11T02:44:23.819Z,64.20
2018-09-11T02:46:52.562Z,64.30
2018-09-11T02:49:20.829Z,64.20
2018-09-11T02:51:49.104Z,64.20
2018-09-11T02:54:18.210Z,64.20
2018-09-11T02:56:46.439Z,64.20
2018-09-11T02:59:14.653Z,64.20
2018-09-11T03:01:43.546Z,64.20
2018-09-11T03:04:11.770Z,64.10
2018-09-11T03:06:40.093Z,64.20
2018-09-11T03:09:08.795Z,64.60
2018-09-11T03:11:37.807Z,64.20
2018-09-11T03:14:06.042Z,64.10
2018-09-11T03:16:34.742Z,64.10
2018-09-11T03:19:03.103Z,64.20
2018-09-11T03:21:31.350Z,64.10
2018-09-11T03:24:01.010Z,64.10
2018-09-11T03:26:29.237Z,64.10
2018-09-11T03:28:57.450Z,64.20
2018-09-11T03:31:26.157Z,64.20
2018-09-11T03:33:54.393Z,64.10
2018-09-11T03:36:22.702Z,64.10
2018-09-11T03:38:51.080Z,64.10
2018-09-11T03:41:19.312Z,64.20
2018-09-11T03:43:47.674Z,64.10
2018-09-11T03:46:16.449Z,64.10
2018-09-11T03:48:44.814Z,64.10
2018-09-11T03:51:13.055Z,64.10
2018-09-11T03:53:41.558Z,64.00
2018-09-11T03:56:09.859Z,64.10
2018-09-11T03:58:38.093Z,64.10
2018-09-11T04:01:06.910Z,64.00
2018-09-11T04:03:35.201Z,64.00
2018-09-11T04:06:03.519Z,64.00
2018-09-11T04:08:32.564Z,64.00
2018-09-11T04:11:00.771Z,64.10
2018-09-11T04:13:29.285Z,64.00
2018-09-11T04:15:57.682Z,64.00
2018-09-11T04:18:25.902Z,64.70
2018-09-11T04:20:54.217Z,64.00
2018-09-11T04:23:22.830Z,63.90
2018-09-11T04:25:51.060Z,63.90
2018-09-11T04:28:19.359Z,63.90
2018-09-11T04:30:48.293Z,63.90
2018-09-11T04:33:16.591Z,63.90
2018-09-11T04:35:45.009Z,63.90
2018-09-11T04:38:13.372Z,63.80
2018-09-11T04:40:41.663Z,64.00
2018-09-11T04:43:09.956Z,63.90
2018-09-11T04:45:38.264Z,63.90
2018-09-11T04:48:06.568Z,63.80
2018-09-11T04:50:34.887Z,63.90
2018-09-11T04:53:03.378Z,64.00
2018-09-11T04:55:31.625Z,63.80
2018-09-11T04:57:59.865Z,63.90
2018-09-11T05:00:28.133Z,63.90
2018-09-11T05:02:56.378Z,63.80
2018-09-11T05:05:26.308Z,63.80
2018-09-11T05:07:54.642Z,64.00
2018-09-11T05:10:22.881Z,63.90
2018-09-11T05:12:51.189Z,64.10
2018-09-11T05:15:20.340Z,64.30
2018-09-11T05:17:48.570Z,64.20
2018-09-11T05:20:16.869Z,64.20
2018-09-11T05:22:45.464Z,64.10
2018-09-11T05:25:13.697Z,64.10
2018-09-11T05:27:41.923Z,64.10
2018-09-11T05:30:10.393Z,64.10
2018-09-11T05:32:38.633Z,63.90
2018-09-11T05:35:06.881Z,63.90
2018-09-11T05:37:35.598Z,63.90
2018-09-11T05:40:03.847Z,63.80
2018-09-11T05:42:32.078Z,63.90
2018-09-11T05:45:01.290Z,63.80
2018-09-11T05:47:29.538Z,63.70
2018-09-11T05:49:57.846Z,63.70
2018-09-11T05:52:26.166Z,63.80
2018-09-11T05:54:54.411Z,64.50
2018-09-11T05:57:23.498Z,63.70
2018-09-11T05:59:51.724Z,63.70
2018-09-11T06:02:19.967Z,63.60
2018-09-11T06:04:49.652Z,63.60
2018-09-11T06:07:17.970Z,63.50
2018-09-11T06:09:46.283Z,63.60
2018-09-11T06:12:14.594Z,63.50
2018-09-11T06:14:42.910Z,63.60
2018-09-11T06:17:12.097Z,63.50
2018-09-11T06:19:40.647Z,63.50
2018-09-11T06:22:08.897Z,63.50
2018-09-11T06:24:37.147Z,63.40
2018-09-11T06:27:06.097Z,63.40
2018-09-11T06:29:34.374Z,63.40
2018-09-11T06:32:02.616Z,63.20
2018-09-11T06:34:31.234Z,63.20
2018-09-11T06:36:59.508Z,63.20
2018-09-11T06:39:27.690Z,63.20
2018-09-11T06:41:56.163Z,62.80
2018-09-11T06:44:24.389Z,63.20
2018-09-11T06:46:52.647Z,63.10
2018-09-11T06:49:23.549Z,63.10
2018-09-11T06:51:51.787Z,63.20
2018-09-11T06:54:20.102Z,63.10
2018-09-11T06:56:48.366Z,63.10
2018-09-11T06:59:16.830Z,63.10
2018-09-11T07:01:45.169Z,62.90
2018-09-11T07:04:13.729Z,63.00
2018-09-11T07:06:41.970Z,62.80
2018-09-11T07:09:11.157Z,62.80
2018-09-11T07:11:39.690Z,62.80
2018-09-11T07:14:08.033Z,63.00
2018-09-11T07:16:36.344Z,63.70
2018-09-11T07:19:08.714Z,63.00
2018-09-11T07:21:36.956Z,63.00
2018-09-11T07:24:05.210Z,63.00
2018-09-11T07:26:35.604Z,63.00
2018-09-11T07:29:03.978Z,62.90
2018-09-11T07:31:32.219Z,62.90
2018-09-11T07:34:00.802Z,63.00
2018-09-11T07:36:29.098Z,62.90
2018-09-11T07:38:57.330Z,62.90
2018-09-11T07:41:26.661Z,63.00
2018-09-11T07:43:54.882Z,62.90
2018-09-11T07:46:23.207Z,62.90
2018-09-11T07:48:53.573Z,62.90
2018-09-11T07:51:21.886Z,62.80
2018-09-11T07:53:50.209Z,62.90
2018-09-11T07:56:19.105Z,62.80
2018-09-11T07:58:47.322Z,62.80
2018-09-11T08:01:15.622Z,62.90
2018-09-11T08:03:46.897Z,62.80
2018-09-11T08:06:15.113Z,62.80
2018-09-11T08:08:43.370Z,62.70
2018-09-11T08:11:11.874Z,62.70
2018-09-11T08:13:40.135Z,62.70
2018-09-11T08:16:08.464Z,62.70
2018-09-11T08:18:37.185Z,62.60
2018-09-11T08:21:06.750Z,62.80
2018-09-11T08:23:34.994Z,62.60
2018-09-11T08:26:03.339Z,62.70
2018-09-11T08:28:31.546Z,62.60
2018-09-11T08:31:00.413Z,62.70
2018-09-11T08:33:28.655Z,62.60
2018-09-11T08:35:56.882Z,62.60
2018-09-11T08:38:25.766Z,63.30
2018-09-11T08:40:54.127Z,62.60
2018-09-11T08:43:22.338Z,62.60
2018-09-11T08:45:51.517Z,62.60
2018-09-11T08:48:19.754Z,62.70
2018-09-11T08:50:47.966Z,62.70
2018-09-11T08:53:16.746Z,63.30
2018-09-11T08:55:44.966Z,62.60
2018-09-11T08:58:13.186Z,62.60
2018-09-11T09:00:42.070Z,62.50
2018-09-11T09:03:10.309Z,62.60
2018-09-11T09:05:38.805Z,62.60
2018-09-11T09:08:08.051Z,62.60
2018-09-11T09:10:36.282Z,62.50
2018-09-11T09:13:04.531Z,62.60
2018-09-11T09:15:33.727Z,62.50
2018-09-11T09:18:02.007Z,62.60
2018-09-11T09:20:30.252Z,62.50
2018-09-11T09:23:00.087Z,62.60
2018-09-11T09:25:28.306Z,62.50
2018-09-11T09:27:56.522Z,62.50
2018-09-11T09:30:25.909Z,62.50
2018-09-11T09:32:54.340Z,62.50
2018-09-11T09:35:22.570Z,62.40
2018-09-11T09:37:50.946Z,62.50
2018-09-11T09:40:19.227Z,62.50
2018-09-11T09:42:47.558Z,62.50
2018-09-11T09:45:15.855Z,62.50
2018-09-11T09:47:44.080Z,62.50
2018-09-11T09:50:12.441Z,62.40
2018-09-11T09:52:40.917Z,62.50
2018-09-11T09:55:09.138Z,62.30
2018-09-11T09:57:37.373Z,62.40
2018-09-11T10:00:05.930Z,62.50
2018-09-11T10:02:35.194Z,62.50
2018-09-11T10:05:03.527Z,62.40
2018-09-11T10:07:32.095Z,63.00
2018-09-11T10:10:00.309Z,62.50
2018-09-11T10:12:28.535Z,62.40
2018-09-11T10:14:57.382Z,62.30
2018-09-11T10:17:25.662Z,62.40
2018-09-11T10:19:53.833Z,62.40
2018-09-11T10:22:22.299Z,62.30
2018-09-11T10:24:51.191Z,62.40
2018-09-11T10:27:19.412Z,62.40
2018-09-11T10:29:47.938Z,62.50
2018-09-11T10:32:16.325Z,62.50
2018-09-11T10:34:44.566Z,62.40
2018-09-11T10:37:13.702Z,62.30
2018-09-11T10:39:41.938Z,62.50
2018-09-11T10:42:10.150Z,62.50
2018-09-11T10:44:38.525Z,62.40
2018-09-11T10:47:06.958Z,62.50
2018-09-11T10:49:35.183Z,62.40
2018-09-11T10:52:03.863Z,62.50
2018-09-11T10:54:32.154Z,62.50
2018-09-11T10:57:00.387Z,62.50
2018-09-11T10:59:28.899Z,62.60
2018-09-11T11:01:57.203Z,62.60
2018-09-11T11:04:27.198Z,62.60
2018-09-11T11:06:56.396Z,62.70
2018-09-11T11:09:24.630Z,62.80
2018-09-11T11:11:52.868Z,62.80
2018-09-11T11:14:21.717Z,62.90
2018-09-11T11:16:49.930Z,62.90
2018-09-11T11:19:18.169Z,63.50
2018-09-11T11:21:46.973Z,63.60
2018-09-11T11:24:15.291Z,64.10
2018-09-11T11:26:43.535Z,64.50
2018-09-11T11:29:12.218Z,64.40
2018-09-11T11:31:40.465Z,64.80
2018-09-11T11:34:08.687Z,65.20
2018-09-11T11:36:37.479Z,65.30
2018-09-11T11:39:08.207Z,68.20
2018-09-11T11:41:37.429Z,68.60
2018-09-11T11:44:05.667Z,70.20
2018-09-11T11:46:33.890Z,70.60
2018-09-11T11:49:02.379Z,70.70
2018-09-11T11:51:30.607Z,71.30
2018-09-11T11:53:58.910Z,71.20
2018-09-11T11:56:27.678Z,71.70
2018-09-11T11:58:55.954Z,72.00
2018-09-11T12:01:24.251Z,71.60
2018-09-11T12:03:53.320Z,72.00
2018-09-11T12:06:22.618Z,72.40
2018-09-11T12:08:50.890Z,70.80
2018-09-11T12:11:19.160Z,72.10
2018-09-11T12:13:47.409Z,71.40
2018-09-11T12:16:15.797Z,71.60
2018-09-11T12:18:44.016Z,71.30
2018-09-11T12:21:12.264Z,70.50
2018-09-11T12:23:40.866Z,70.10
2018-09-11T12:26:09.415Z,70.80
2018-09-11T12:28:37.642Z,71.10
2018-09-11T12:31:06.063Z,71.30
2018-09-11T12:33:34.293Z,70.40
2018-09-11T12:36:02.689Z,70.70
2018-09-11T12:38:32.167Z,70.90
2018-09-11T12:41:00.477Z,70.50
2018-09-11T12:43:28.724Z,70.60
2018-09-11T12:45:57.551Z,70.00
2018-09-11T12:48:25.738Z,70.50
2018-09-11T12:50:54.010Z,70.70
2018-09-11T12:53:22.730Z,70.70
2018-09-11T12:55:50.962Z,70.30
2018-09-11T12:58:19.282Z,70.80
2018-09-11T13:00:48.089Z,70.00
2018-09-11T13:03:16.311Z,69.80
2018-09-11T13:05:44.634Z,69.50
2018-09-11T13:08:14.463Z,69.20
2018-09-11T13:10:42.754Z,69.20
2018-09-11T13:13:11.095Z,69.40
2018-09-11T13:15:39.615Z,69.10
2018-09-11T13:18:07.970Z,69.50
2018-09-11T13:20:36.199Z,69.30
2018-09-11T13:23:05.129Z,70.00
2018-09-11T13:25:33.455Z,70.20
2018-09-11T13:28:01.778Z,71.00
2018-09-11T13:30:30.482Z,71.20
2018-09-11T13:32:58.735Z,70.80
2018-09-11T13:35:26.961Z,70.70
2018-09-11T13:37:55.814Z,70.60
2018-09-11T13:40:24.206Z,70.50
2018-09-11T13:42:52.451Z,70.30
2018-09-11T13:45:21.670Z,69.60
2018-09-11T13:47:50.080Z,70.00
2018-09-11T13:50:18.262Z,69.90
2018-09-11T13:52:47.290Z,69.80
2018-09-11T13:55:15.520Z,69.60
2018-09-11T13:57:43.898Z,69.70
2018-09-11T14:00:12.675Z,69.60
2018-09-11T14:02:41.031Z,69.70
2018-09-11T14:05:12.262Z,69.50
2018-09-11T14:07:40.973Z,69.40
2018-09-11T14:10:09.586Z,69.20
2018-09-11T14:12:37.846Z,69.40
2018-09-11T14:15:06.967Z,68.70
2018-09-11T14:17:35.262Z,68.60
2018-09-11T14:20:03.951Z,69.50
2018-09-11T14:22:35.757Z,70.00
2018-09-11T14:25:04.032Z,69.40
2018-09-11T14:27:32.294Z,68.40
2018-09-11T14:30:00.607Z,68.10
2018-09-11T14:32:28.868Z,67.80
2018-09-11T14:34:57.087Z,67.50
2018-09-11T14:37:25.837Z,67.30
2018-09-11T14:39:54.063Z,67.80
2018-09-11T14:42:22.330Z,67.80
2018-09-11T14:44:51.085Z,67.40
2018-09-11T14:47:19.354Z,66.90
2018-09-11T14:49:47.594Z,67.10
2018-09-11T14:52:16.223Z,67.10
2018-09-11T14:54:44.470Z,66.60
2018-09-11T14:57:12.791Z,67.70
2018-09-11T14:59:41.247Z,66.70
2018-09-11T15:02:09.482Z,66.50
2018-09-11T15:04:38.008Z,65.80
2018-09-11T15:07:06.594Z,65.30
2018-09-11T15:09:34.851Z,65.00
2018-09-11T15:12:04.191Z,65.30
2018-09-11T15:14:32.642Z,65.00
2018-09-11T15:17:00.864Z,64.80
2018-09-11T15:19:29.126Z,64.40
2018-09-11T15:21:58.664Z,64.30
2018-09-11T15:24:27.004Z,64.60
2018-09-11T15:26:55.329Z,65.80
2018-09-11T15:29:27.421Z,64.70
2018-09-11T15:31:56.144Z,64.40
2018-09-11T15:34:25.297Z,64.30
2018-09-11T15:36:54.485Z,64.80
2018-09-11T15:39:22.786Z,64.30
2018-09-11T15:41:51.685Z,64.40
2018-09-11T15:44:19.998Z,64.90
2018-09-11T15:46:48.463Z,65.20
2018-09-11T15:49:17.748Z,65.10
2018-09-11T15:51:46.113Z,65.30
2018-09-11T15:54:14.351Z,65.30
2018-09-11T15:56:42.793Z,65.40
2018-09-11T15:59:11.023Z,65.70
2018-09-11T16:01:39.343Z,65.80
2018-09-11T16:04:07.911Z,65.90
2018-09-11T16:06:36.210Z,66.10
2018-09-11T16:09:06.572Z,66.30
2018-09-11T16:11:35.410Z,66.70
2018-09-11T16:14:04.507Z,66.80
2018-09-11T16:16:32.762Z,67.00
2018-09-11T16:19:01.162Z,67.20
2018-09-11T16:21:29.407Z,67.40
2018-09-11T16:23:57.681Z,67.60
2018-09-11T16:26:26.809Z,67.80
2018-09-11T16:28:55.178Z,67.70
2018-09-11T16:31:23.502Z,70.60
2018-09-11T16:33:51.811Z,73.40
2018-09-11T16:36:20.043Z,72.70
2018-09-11T16:38:48.340Z,72.10
2018-09-11T16:41:16.799Z,70.50
2018-09-11T16:43:45.047Z,70.40
2018-09-11T16:46:13.327Z,70.90
2018-09-11T16:48:42.231Z,70.80
2018-09-11T16:51:10.478Z,71.20
2018-09-11T16:53:38.715Z,71.60
2018-09-11T16:56:07.089Z,72.70
2018-09-11T16:58:35.513Z,72.80
2018-09-11T17:01:03.865Z,71.20
2018-09-11T17:03:35.679Z,71.30
2018-09-11T17:06:03.917Z,72.20
2018-09-11T17:08:32.203Z,72.90
2018-09-11T17:11:00.811Z,73.30
2018-09-11T17:13:29.107Z,74.70
2018-09-11T17:15:57.686Z,74.40
2018-09-11T17:18:26.015Z,73.40
2018-09-11T17:20:54.272Z,71.10
2018-09-11T17:23:22.625Z,71.20
2018-09-11T17:25:51.606Z,70.80
2018-09-11T17:28:19.929Z,71.20
2018-09-11T17:30:48.395Z,70.80
2018-09-11T17:33:17.255Z,70.40
2018-09-11T17:35:45.520Z,70.30
2018-09-11T17:38:13.739Z,70.30
2018-09-11T17:40:42.690Z,70.40
2018-09-11T17:43:11.004Z,70.30
2018-09-11T17:45:39.445Z,70.20
2018-09-11T17:48:08.971Z,70.20
2018-09-11T17:50:37.295Z,70.30
2018-09-11T17:53:05.691Z,70.30
2018-09-11T17:55:33.997Z,70.20
2018-09-11T17:58:02.275Z,70.10
2018-09-11T18:00:30.503Z,70.10
2018-09-11T18:02:59.127Z,70.10
2018-09-11T18:05:27.400Z,69.80
2018-09-11T18:07:55.639Z,69.80
2018-09-11T18:10:24.445Z,69.70
2018-09-11T18:12:52.690Z,70.10
2018-09-11T18:15:21.275Z,69.60
2018-09-11T18:17:50.922Z,69.40
2018-09-11T18:20:19.190Z,69.40
2018-09-11T18:22:47.494Z,69.40
2018-09-11T18:25:15.995Z,69.00
2018-09-11T18:27:44.256Z,68.70
2018-09-11T18:30:12.655Z,68.80
2018-09-11T18:32:42.263Z,68.90
2018-09-11T18:35:10.696Z,69.10
2018-09-11T18:37:38.978Z,68.60
2018-09-11T18:40:07.444Z,68.70
2018-09-11T18:42:36.007Z,68.70
2018-09-11T18:45:05.147Z,68.90
2018-09-11T18:47:33.395Z,68.90
2018-09-11T18:50:01.644Z,69.20
2018-09-11T18:52:30.011Z,69.30
2018-09-11T18:55:00.547Z,69.30
2018-09-11T18:57:28.871Z,69.30
2018-09-11T18:59:57.075Z,68.80
2018-09-11T19:02:25.563Z,68.70
2018-09-11T19:04:53.806Z,68.20
2018-09-11T19:07:22.129Z,68.00
2018-09-11T19:09:50.612Z,67.80
2018-09-11T19:12:18.933Z,67.50
2018-09-11T19:14:47.191Z,67.40
2018-09-11T19:17:18.205Z,67.20
2018-09-11T19:19:48.102Z,67.10
2018-09-11T19:22:16.326Z,67.10
2018-09-11T19:24:45.212Z,66.90
2018-09-11T19:27:13.570Z,66.70
2018-09-11T19:29:42.679Z,66.60
2018-09-11T19:32:12.057Z,66.40
2018-09-11T19:34:40.415Z,66.40
2018-09-11T19:37:08.748Z,66.20
2018-09-11T19:39:37.016Z,66.10
2018-09-11T19:42:05.999Z,66.00
2018-09-11T19:44:34.273Z,65.90
2018-09-11T19:47:02.552Z,65.70
2018-09-11T19:49:31.136Z,65.70
2018-09-11T19:51:59.513Z,65.80
2018-09-11T19:54:28.728Z,65.50
2018-09-11T19:56:58.927Z,65.50
2018-09-11T19:59:27.181Z,65.30
2018-09-11T20:01:55.439Z,65.20
2018-09-11T20:04:28.231Z,65.20
2018-09-11T20:06:56.463Z,65.10
2018-09-11T20:09:24.714Z,65.00
2018-09-11T20:11:53.484Z,65.00
2018-09-11T20:14:21.787Z,64.80
2018-09-11T20:16:50.040Z,64.90
2018-09-11T20:19:19.377Z,64.80
2018-09-11T20:21:48.426Z,64.60
2018-09-11T20:24:17.761Z,64.50
2018-09-11T20:26:46.443Z,64.60
2018-09-11T20:29:14.675Z,64.30
2018-09-11T20:31:43.360Z,64.30
2018-09-11T20:34:11.982Z,64.20
2018-09-11T20:36:40.284Z,64.30
2018-09-11T20:39:10.228Z,64.20
2018-09-11T20:41:39.487Z,64.10
2018-09-11T20:44:08.299Z,64.20
2018-09-11T20:46:36.631Z,64.00
2018-09-11T20:49:05.226Z,64.10
2018-09-11T20:51:33.475Z,64.00
2018-09-11T20:54:01.782Z,64.70
2018-09-11T20:56:30.567Z,63.80
2018-09-11T20:58:58.912Z,63.80
2018-09-11T21:01:27.154Z,63.90
2018-09-11T21:03:57.049Z,63.80
2018-09-11T21:06:25.302Z,63.50
2018-09-11T21:08:53.534Z,63.50
2018-09-11T21:11:22.790Z,63.50
2018-09-11T21:13:51.010Z,63.60
2018-09-11T21:16:19.429Z,63.70
2018-09-11T21:18:48.129Z,63.70
2018-09-11T21:21:17.635Z,63.50
2018-09-11T21:23:45.853Z,63.50
2018-09-11T21:26:14.604Z,63.20
2018-09-11T21:28:42.911Z,63.50
2018-09-11T21:31:11.164Z,63.40
2018-09-11T21:33:40.162Z,63.40
2018-09-11T21:36:08.398Z,63.40
2018-09-11T21:38:36.734Z,63.20
2018-09-11T21:41:05.694Z,63.30
2018-09-11T21:43:33.990Z,63.30
2018-09-11T21:46:02.332Z,63.20
2018-09-11T21:48:31.135Z,63.10
2018-09-11T21:50:59.427Z,63.20
2018-09-11T21:53:27.654Z,63.00
2018-09-11T21:55:55.915Z,62.90
2018-09-11T21:58:24.246Z,63.00
2018-09-11T22:00:58.660Z,62.90
2018-09-11T22:03:26.959Z,63.10
2018-09-11T22:05:55.277Z,62.80
2018-09-11T22:08:23.690Z,62.80
2018-09-11T22:10:51.996Z,62.60
2018-09-11T22:13:20.323Z,62.50
2018-09-11T22:15:48.704Z,62.50
2018-09-11T22:18:16.937Z,62.60
2018-09-11T22:20:45.158Z,62.60
2018-09-11T22:23:15.318Z,62.70
2018-09-11T22:25:43.609Z,62.50
2018-09-11T22:28:11.829Z,62.30
2018-09-11T22:30:40.150Z,62.10
2018-09-11T22:33:08.452Z,62.10
2018-09-11T22:35:36.785Z,62.20
2018-09-11T22:38:05.101Z,62.50
2018-09-11T22:40:33.339Z,62.20
2018-09-11T22:43:01.586Z,62.20
2018-09-11T22:45:31.550Z,62.20
2018-09-11T22:48:00.104Z,62.60
2018-09-11T22:50:28.425Z,62.00
2018-09-11T22:52:56.763Z,62.10
2018-09-11T22:55:25.059Z,61.90
2018-09-11T22:57:53.286Z,61.60
2018-09-11T23:00:22.129Z,61.50
2018-09-11T23:02:50.348Z,61.90
2018-09-11T23:05:20.220Z,62.40
2018-09-11T23:07:48.895Z,61.20
2018-09-11T23:10:17.105Z,62.30
2018-09-11T23:12:45.520Z,61.50
2018-09-11T23:15:13.809Z,61.50
2018-09-11T23:17:42.105Z,62.20
2018-09-11T23:20:10.433Z,61.30
2018-09-11T23:22:39.587Z,61.50
2018-09-11T23:25:08.514Z,61.50
2018-09-11T23:27:36.813Z,61.20
2018-09-11T23:30:05.538Z,61.30
2018-09-11T23:32:33.771Z,61.30
2018-09-11T23:35:02.078Z,61.10
2018-09-11T23:37:30.586Z,61.20
2018-09-11T23:39:58.909Z,61.30
2018-09-11T23:42:27.129Z,61.20
2018-09-11T23:44:56.439Z,61.10
2018-09-11T23:47:24.727Z,61.10
2018-09-11T23:49:53.022Z,60.80
2018-09-11T23:52:21.266Z,61.20
2018-09-11T23:54:49.574Z,60.90
2018-09-11T23:57:17.885Z,60.90
2018-09-11T23:59:46.394Z,61.10
